sensor_id;sensor_type;location;lat;lon;timestamp;temperature;humidity
71175;DHT22;58876;51.994;4.472;2023-07-29T00:01:59;19.32;78.80
71175;DHT22;58876;51.994;4.472;2023-07-29T00:04:25;19.29;78.92
71175;DHT22;58876;51.994;4.472;2023-07-29T00:06:50;19.25;78.82
71175;DHT22;58876;51.994;4.472;2023-07-29T00:09:16;18.94;79.37
71175;DHT22;58876;51.994;4.472;2023-07-29T00:11:41;19.01;79.35
71175;DHT22;58876;51.994;4.472;2023-07-29T00:14:06;18.99;78.99
71175;DHT22;58876;51.994;4.472;2023-07-29T00:16:32;19.14;78.54
71175;DHT22;58876;51.994;4.472;2023-07-29T00:18:57;19.16;77.92
71175;DHT22;58876;51.994;4.472;2023-07-29T00:21:23;19.18;78.08
71175;DHT22;58876;51.994;4.472;2023-07-29T00:23:48;19.15;78.43
71175;DHT22;58876;51.994;4.472;2023-07-29T00:26:14;19.22;78.07
71175;DHT22;58876;51.994;4.472;2023-07-29T00:28:39;19.28;77.57
71175;DHT22;58876;51.994;4.472;2023-07-29T00:31:05;19.26;77.63
71175;DHT22;58876;51.994;4.472;2023-07-29T00:33:31;19.12;77.85
71175;DHT22;58876;51.994;4.472;2023-07-29T00:35:56;19.14;77.86
71175;DHT22;58876;51.994;4.472;2023-07-29T00:38:22;19.01;78.12
71175;DHT22;58876;51.994;4.472;2023-07-29T00:40:47;19.05;78.37
71175;DHT22;58876;51.994;4.472;2023-07-29T00:43:15;19.19;77.86
71175;DHT22;58876;51.994;4.472;2023-07-29T00:45:43;19.02;78.62
71175;DHT22;58876;51.994;4.472;2023-07-29T00:48:09;19.02;78.56
71175;DHT22;58876;51.994;4.472;2023-07-29T00:50:35;18.98;78.68
71175;DHT22;58876;51.994;4.472;2023-07-29T00:53:00;19.04;78.69
71175;DHT22;58876;51.994;4.472;2023-07-29T00:55:27;18.92;78.96
71175;DHT22;58876;51.994;4.472;2023-07-29T00:57:53;18.95;78.82
71175;DHT22;58876;51.994;4.472;2023-07-29T01:00:20;18.91;78.54
71175;DHT22;58876;51.994;4.472;2023-07-29T01:02:46;18.92;78.75
71175;DHT22;58876;51.994;4.472;2023-07-29T01:05:14;19.02;78.24
71175;DHT22;58876;51.994;4.472;2023-07-29T01:15:54;18.85;78.68
71175;DHT22;58876;51.994;4.472;2023-07-29T01:18:28;18.83;78.83
71175;DHT22;58876;51.994;4.472;2023-07-29T01:20:59;18.90;78.77
71175;DHT22;58876;51.994;4.472;2023-07-29T01:23:34;18.94;78.39
71175;DHT22;58876;51.994;4.472;2023-07-29T01:26:01;18.97;78.07
71175;DHT22;58876;51.994;4.472;2023-07-29T01:28:27;18.92;78.12
71175;DHT22;58876;51.994;4.472;2023-07-29T01:31:02;18.87;78.22
71175;DHT22;58876;51.994;4.472;2023-07-29T01:33:40;18.77;78.58
71175;DHT22;58876;51.994;4.472;2023-07-29T01:36:13;18.78;78.41
71175;DHT22;58876;51.994;4.472;2023-07-29T01:38:43;18.75;78.61
71175;DHT22;58876;51.994;4.472;2023-07-29T01:41:10;18.81;78.38
71175;DHT22;58876;51.994;4.472;2023-07-29T01:43:37;18.74;78.18
71175;DHT22;58876;51.994;4.472;2023-07-29T01:46:12;18.71;78.44
71175;DHT22;58876;51.994;4.472;2023-07-29T01:48:38;18.65;78.81
71175;DHT22;58876;51.994;4.472;2023-07-29T01:51:05;18.72;78.32
71175;DHT22;58876;51.994;4.472;2023-07-29T01:53:31;18.67;78.42
71175;DHT22;58876;51.994;4.472;2023-07-29T01:55:57;18.72;78.11
71175;DHT22;58876;51.994;4.472;2023-07-29T01:58:23;18.74;78.08
71175;DHT22;58876;51.994;4.472;2023-07-29T02:00:48;18.71;78.29
71175;DHT22;58876;51.994;4.472;2023-07-29T02:03:14;18.72;78.14
71175;DHT22;58876;51.994;4.472;2023-07-29T02:05:39;18.59;78.46
71175;DHT22;58876;51.994;4.472;2023-07-29T02:08:05;18.63;78.47
71175;DHT22;58876;51.994;4.472;2023-07-29T02:10:31;18.57;78.60
71175;DHT22;58876;51.994;4.472;2023-07-29T02:12:56;18.44;78.99
71175;DHT22;58876;51.994;4.472;2023-07-29T02:15:21;18.49;78.85
71175;DHT22;58876;51.994;4.472;2023-07-29T02:17:50;18.57;78.57
71175;DHT22;58876;51.994;4.472;2023-07-29T02:20:16;18.41;79.31
71175;DHT22;58876;51.994;4.472;2023-07-29T02:22:42;18.57;78.88
71175;DHT22;58876;51.994;4.472;2023-07-29T02:25:07;18.57;78.65
71175;DHT22;58876;51.994;4.472;2023-07-29T02:27:33;18.57;78.81
71175;DHT22;58876;51.994;4.472;2023-07-29T02:29:59;18.56;78.59
71175;DHT22;58876;51.994;4.472;2023-07-29T02:32:24;18.51;79.01
71175;DHT22;58876;51.994;4.472;2023-07-29T02:34:49;18.60;78.92
71175;DHT22;58876;51.994;4.472;2023-07-29T02:37:15;18.61;78.77
71175;DHT22;58876;51.994;4.472;2023-07-29T02:39:40;18.57;78.93
71175;DHT22;58876;51.994;4.472;2023-07-29T02:42:06;18.51;78.80
71175;DHT22;58876;51.994;4.472;2023-07-29T02:44:31;18.53;79.16
71175;DHT22;58876;51.994;4.472;2023-07-29T02:46:57;18.60;78.56
71175;DHT22;58876;51.994;4.472;2023-07-29T02:49:23;18.64;78.80
71175;DHT22;58876;51.994;4.472;2023-07-29T02:51:49;18.64;78.70
71175;DHT22;58876;51.994;4.472;2023-07-29T02:54:14;18.53;78.84
71175;DHT22;58876;51.994;4.472;2023-07-29T02:56:40;18.47;79.24
71175;DHT22;58876;51.994;4.472;2023-07-29T02:59:05;18.39;79.50
71175;DHT22;58876;51.994;4.472;2023-07-29T03:01:31;18.36;79.71
71175;DHT22;58876;51.994;4.472;2023-07-29T03:03:57;18.26;80.19
71175;DHT22;58876;51.994;4.472;2023-07-29T03:06:24;18.28;80.33
71175;DHT22;58876;51.994;4.472;2023-07-29T03:08:49;18.40;79.73
71175;DHT22;58876;51.994;4.472;2023-07-29T03:11:16;18.33;79.99
71175;DHT22;58876;51.994;4.472;2023-07-29T03:13:43;18.32;80.28
71175;DHT22;58876;51.994;4.472;2023-07-29T03:16:14;18.23;80.40
71175;DHT22;58876;51.994;4.472;2023-07-29T03:18:41;18.25;80.66
71175;DHT22;58876;51.994;4.472;2023-07-29T03:21:07;18.22;80.91
71175;DHT22;58876;51.994;4.472;2023-07-29T03:23:33;18.26;80.57
71175;DHT22;58876;51.994;4.472;2023-07-29T03:26:01;18.34;80.33
71175;DHT22;58876;51.994;4.472;2023-07-29T03:28:31;18.28;80.38
71175;DHT22;58876;51.994;4.472;2023-07-29T03:30:57;18.22;80.75
71175;DHT22;58876;51.994;4.472;2023-07-29T03:33:25;18.29;80.59
71175;DHT22;58876;51.994;4.472;2023-07-29T03:35:51;18.29;80.49
71175;DHT22;58876;51.994;4.472;2023-07-29T03:38:17;18.30;80.41
71175;DHT22;58876;51.994;4.472;2023-07-29T03:40:42;18.34;80.28
71175;DHT22;58876;51.994;4.472;2023-07-29T03:43:08;18.28;80.70
71175;DHT22;58876;51.994;4.472;2023-07-29T03:45:35;18.33;80.64
71175;DHT22;58876;51.994;4.472;2023-07-29T03:48:00;18.32;80.63
71175;DHT22;58876;51.994;4.472;2023-07-29T03:50:26;18.30;80.51
71175;DHT22;58876;51.994;4.472;2023-07-29T03:52:52;18.40;80.43
71175;DHT22;58876;51.994;4.472;2023-07-29T03:55:18;18.36;80.36
71175;DHT22;58876;51.994;4.472;2023-07-29T03:57:43;18.30;80.63
71175;DHT22;58876;51.994;4.472;2023-07-29T04:00:09;18.28;80.61
71175;DHT22;58876;51.994;4.472;2023-07-29T04:02:35;18.28;80.79
71175;DHT22;58876;51.994;4.472;2023-07-29T04:05:05;18.40;80.49
71175;DHT22;58876;51.994;4.472;2023-07-29T04:07:32;18.29;80.66
71175;DHT22;58876;51.994;4.472;2023-07-29T04:09:58;18.40;80.74
71175;DHT22;58876;51.994;4.472;2023-07-29T04:12:24;18.33;80.71
71175;DHT22;58876;51.994;4.472;2023-07-29T04:14:50;18.36;80.57
71175;DHT22;58876;51.994;4.472;2023-07-29T04:17:15;18.37;80.40
71175;DHT22;58876;51.994;4.472;2023-07-29T04:19:41;18.44;80.53
71175;DHT22;58876;51.994;4.472;2023-07-29T04:22:06;18.33;80.73
71175;DHT22;58876;51.994;4.472;2023-07-29T04:24:32;18.37;80.72
71175;DHT22;58876;51.994;4.472;2023-07-29T04:26:57;18.37;80.59
71175;DHT22;58876;51.994;4.472;2023-07-29T04:29:23;18.43;80.83
71175;DHT22;58876;51.994;4.472;2023-07-29T04:31:49;18.34;80.94
71175;DHT22;58876;51.994;4.472;2023-07-29T04:34:15;18.34;80.99
71175;DHT22;58876;51.994;4.472;2023-07-29T04:36:40;18.39;81.19
71175;DHT22;58876;51.994;4.472;2023-07-29T04:39:06;18.37;80.94
71175;DHT22;58876;51.994;4.472;2023-07-29T04:41:31;18.44;81.08
71175;DHT22;58876;51.994;4.472;2023-07-29T04:43:57;18.47;81.00
71175;DHT22;58876;51.994;4.472;2023-07-29T04:46:22;18.53;80.58
71175;DHT22;58876;51.994;4.472;2023-07-29T04:48:48;18.57;80.67
71175;DHT22;58876;51.994;4.472;2023-07-29T04:51:13;18.46;81.19
71175;DHT22;58876;51.994;4.472;2023-07-29T04:53:39;18.43;81.36
71175;DHT22;58876;51.994;4.472;2023-07-29T04:56:04;18.51;81.18
71175;DHT22;58876;51.994;4.472;2023-07-29T04:58:30;18.61;81.19
71175;DHT22;58876;51.994;4.472;2023-07-29T05:00:59;18.75;80.60
71175;DHT22;58876;51.994;4.472;2023-07-29T05:03:25;18.64;80.76
71175;DHT22;58876;51.994;4.472;2023-07-29T05:05:51;18.67;80.87
71175;DHT22;58876;51.994;4.472;2023-07-29T05:08:18;18.54;81.12
71175;DHT22;58876;51.994;4.472;2023-07-29T05:10:44;18.54;81.35
71175;DHT22;58876;51.994;4.472;2023-07-29T05:13:10;18.46;81.71
71175;DHT22;58876;51.994;4.472;2023-07-29T05:15:35;18.65;81.15
71175;DHT22;58876;51.994;4.472;2023-07-29T05:18:01;18.65;81.17
71175;DHT22;58876;51.994;4.472;2023-07-29T05:20:26;18.68;81.18
71175;DHT22;58876;51.994;4.472;2023-07-29T05:22:52;18.75;80.76
71175;DHT22;58876;51.994;4.472;2023-07-29T05:25:17;18.80;80.66
71175;DHT22;58876;51.994;4.472;2023-07-29T05:27:42;18.72;81.20
71175;DHT22;58876;51.994;4.472;2023-07-29T05:30:08;18.75;81.39
71175;DHT22;58876;51.994;4.472;2023-07-29T05:32:34;19.01;80.84
71175;DHT22;58876;51.994;4.472;2023-07-29T05:34:59;18.85;80.84
71175;DHT22;58876;51.994;4.472;2023-07-29T05:37:24;18.87;80.89
71175;DHT22;58876;51.994;4.472;2023-07-29T05:39:50;18.95;81.01
71175;DHT22;58876;51.994;4.472;2023-07-29T05:42:15;18.98;81.10
71175;DHT22;58876;51.994;4.472;2023-07-29T05:44:41;19.15;80.84
71175;DHT22;58876;51.994;4.472;2023-07-29T05:47:06;19.28;80.22
71175;DHT22;58876;51.994;4.472;2023-07-29T05:49:32;19.19;80.57
71175;DHT22;58876;51.994;4.472;2023-07-29T05:51:57;19.14;80.71
71175;DHT22;58876;51.994;4.472;2023-07-29T05:54:23;19.01;81.08
71175;DHT22;58876;51.994;4.472;2023-07-29T05:56:48;19.07;81.15
71175;DHT22;58876;51.994;4.472;2023-07-29T05:59:14;19.12;81.06
71175;DHT22;58876;51.994;4.472;2023-07-29T06:01:39;19.18;81.07
71175;DHT22;58876;51.994;4.472;2023-07-29T06:04:05;19.14;81.35
71175;DHT22;58876;51.994;4.472;2023-07-29T06:06:30;19.28;80.78
71175;DHT22;58876;51.994;4.472;2023-07-29T06:08:56;19.30;80.95
71175;DHT22;58876;51.994;4.472;2023-07-29T06:11:21;19.33;80.82
71175;DHT22;58876;51.994;4.472;2023-07-29T06:13:47;19.42;80.55
71175;DHT22;58876;51.994;4.472;2023-07-29T06:16:13;19.42;80.70
71175;DHT22;58876;51.994;4.472;2023-07-29T06:18:38;19.30;80.89
71175;DHT22;58876;51.994;4.472;2023-07-29T06:21:04;19.23;81.44
71175;DHT22;58876;51.994;4.472;2023-07-29T06:23:35;19.45;81.10
71175;DHT22;58876;51.994;4.472;2023-07-29T06:26:01;19.46;80.43
71175;DHT22;58876;51.994;4.472;2023-07-29T06:28:26;19.52;80.62
71175;DHT22;58876;51.994;4.472;2023-07-29T06:30:52;19.69;79.88
71175;DHT22;58876;51.994;4.472;2023-07-29T06:33:18;19.67;79.99
71175;DHT22;58876;51.994;4.472;2023-07-29T06:35:43;19.73;80.09
71175;DHT22;58876;51.994;4.472;2023-07-29T06:38:09;19.88;79.47
71175;DHT22;58876;51.994;4.472;2023-07-29T06:40:34;20.04;79.16
71175;DHT22;58876;51.994;4.472;2023-07-29T06:43:00;20.06;78.94
71175;DHT22;58876;51.994;4.472;2023-07-29T06:45:26;20.03;78.78
71175;DHT22;58876;51.994;4.472;2023-07-29T06:47:52;20.11;78.69
71175;DHT22;58876;51.994;4.472;2023-07-29T06:50:17;20.37;77.66
71175;DHT22;58876;51.994;4.472;2023-07-29T06:52:43;20.21;78.20
71175;DHT22;58876;51.994;4.472;2023-07-29T06:55:08;20.13;78.72
71175;DHT22;58876;51.994;4.472;2023-07-29T06:57:34;19.96;79.14
71175;DHT22;58876;51.994;4.472;2023-07-29T07:00:00;19.94;78.69
71175;DHT22;58876;51.994;4.472;2023-07-29T07:02:25;20.07;78.61
71175;DHT22;58876;51.994;4.472;2023-07-29T07:04:51;20.04;78.24
71175;DHT22;58876;51.994;4.472;2023-07-29T07:07:16;20.03;77.57
71175;DHT22;58876;51.994;4.472;2023-07-29T07:09:50;20.27;76.93
71175;DHT22;58876;51.994;4.472;2023-07-29T07:12:16;20.38;74.84
71175;DHT22;58876;51.994;4.472;2023-07-29T07:14:41;20.20;75.26
71175;DHT22;58876;51.994;4.472;2023-07-29T07:17:07;20.55;75.64
71175;DHT22;58876;51.994;4.472;2023-07-29T07:19:32;20.61;74.60
71175;DHT22;58876;51.994;4.472;2023-07-29T07:21:58;20.75;74.66
71175;DHT22;58876;51.994;4.472;2023-07-29T07:24:23;20.87;73.17
71175;DHT22;58876;51.994;4.472;2023-07-29T07:26:49;20.79;74.12
71175;DHT22;58876;51.994;4.472;2023-07-29T07:29:14;20.87;74.18
71175;DHT22;58876;51.994;4.472;2023-07-29T07:31:40;21.14;72.23
71175;DHT22;58876;51.994;4.472;2023-07-29T07:34:05;21.23;71.37
71175;DHT22;58876;51.994;4.472;2023-07-29T07:36:31;21.07;71.99
71175;DHT22;58876;51.994;4.472;2023-07-29T07:38:56;20.72;70.84
71175;DHT22;58876;51.994;4.472;2023-07-29T07:41:22;21.00;71.31
71175;DHT22;58876;51.994;4.472;2023-07-29T07:43:49;20.77;71.57
71175;DHT22;58876;51.994;4.472;2023-07-29T07:46:14;20.75;72.27
71175;DHT22;58876;51.994;4.472;2023-07-29T07:48:40;20.92;71.83
71175;DHT22;58876;51.994;4.472;2023-07-29T07:51:12;21.54;70.12
71175;DHT22;58876;51.994;4.472;2023-07-29T07:53:38;21.40;68.83
71175;DHT22;58876;51.994;4.472;2023-07-29T07:56:03;21.30;69.57
71175;DHT22;58876;51.994;4.472;2023-07-29T07:58:29;21.44;68.93
71175;DHT22;58876;51.994;4.472;2023-07-29T08:01:04;21.06;70.08
71175;DHT22;58876;51.994;4.472;2023-07-29T08:03:30;21.19;70.17
71175;DHT22;58876;51.994;4.472;2023-07-29T08:05:56;21.92;68.29
71175;DHT22;58876;51.994;4.472;2023-07-29T08:08:21;21.53;67.79
71175;DHT22;58876;51.994;4.472;2023-07-29T08:10:47;21.79;68.03
71175;DHT22;58876;51.994;4.472;2023-07-29T08:13:12;22.05;66.59
71175;DHT22;58876;51.994;4.472;2023-07-29T08:15:38;22.70;65.76
71175;DHT22;58876;51.994;4.472;2023-07-29T08:18:03;23.37;64.52
71175;DHT22;58876;51.994;4.472;2023-07-29T08:20:29;23.90;63.53
71175;DHT22;58876;51.994;4.472;2023-07-29T08:22:54;23.73;63.11
71175;DHT22;58876;51.994;4.472;2023-07-29T08:25:20;23.51;62.67
71175;DHT22;58876;51.994;4.472;2023-07-29T08:27:45;22.43;65.02
71175;DHT22;58876;51.994;4.472;2023-07-29T08:30:11;21.96;67.03
71175;DHT22;58876;51.994;4.472;2023-07-29T08:32:37;21.51;68.88
71175;DHT22;58876;51.994;4.472;2023-07-29T08:35:03;21.22;69.66
71175;DHT22;58876;51.994;4.472;2023-07-29T08:37:28;20.92;70.96
71175;DHT22;58876;51.994;4.472;2023-07-29T08:39:54;20.82;72.84
71175;DHT22;58876;51.994;4.472;2023-07-29T08:42:22;21.03;72.54
71175;DHT22;58876;51.994;4.472;2023-07-29T08:44:49;20.90;73.03
71175;DHT22;58876;51.994;4.472;2023-07-29T08:47:15;20.90;73.59
71175;DHT22;58876;51.994;4.472;2023-07-29T08:49:42;20.90;73.71
71175;DHT22;58876;51.994;4.472;2023-07-29T08:52:09;20.92;73.66
71175;DHT22;58876;51.994;4.472;2023-07-29T08:54:35;20.53;74.32
71175;DHT22;58876;51.994;4.472;2023-07-29T08:57:01;20.72;74.53
71175;DHT22;58876;51.994;4.472;2023-07-29T08:59:28;20.72;74.96
71175;DHT22;58876;51.994;4.472;2023-07-29T09:01:54;20.39;76.09
71175;DHT22;58876;51.994;4.472;2023-07-29T09:04:23;20.29;76.95
71175;DHT22;58876;51.994;4.472;2023-07-29T09:06:51;20.24;77.67
71175;DHT22;58876;51.994;4.472;2023-07-29T09:09:17;20.37;77.92
71175;DHT22;58876;51.994;4.472;2023-07-29T09:11:43;20.42;77.52
71175;DHT22;58876;51.994;4.472;2023-07-29T09:14:09;20.64;76.70
71175;DHT22;58876;51.994;4.472;2023-07-29T09:16:35;20.77;75.68
71175;DHT22;58876;51.994;4.472;2023-07-29T09:19:02;20.68;74.35
71175;DHT22;58876;51.994;4.472;2023-07-29T09:21:29;20.87;74.62
71175;DHT22;58876;51.994;4.472;2023-07-29T09:23:55;20.87;74.41
71175;DHT22;58876;51.994;4.472;2023-07-29T09:26:26;21.02;74.58
71175;DHT22;58876;51.994;4.472;2023-07-29T09:28:54;21.22;73.78
71175;DHT22;58876;51.994;4.472;2023-07-29T09:31:22;21.26;73.26
71175;DHT22;58876;51.994;4.472;2023-07-29T09:33:48;21.08;73.32
71175;DHT22;58876;51.994;4.472;2023-07-29T09:36:14;21.08;72.35
71175;DHT22;58876;51.994;4.472;2023-07-29T09:38:40;20.87;72.27
71175;DHT22;58876;51.994;4.472;2023-07-29T09:41:05;20.77;73.06
71175;DHT22;58876;51.994;4.472;2023-07-29T09:43:33;20.69;74.02
71175;DHT22;58876;51.994;4.472;2023-07-29T09:46:03;20.82;74.14
71175;DHT22;58876;51.994;4.472;2023-07-29T09:48:36;20.89;74.06
71175;DHT22;58876;51.994;4.472;2023-07-29T09:51:20;21.02;73.64
71175;DHT22;58876;51.994;4.472;2023-07-29T09:53:47;21.27;72.39
71175;DHT22;58876;51.994;4.472;2023-07-29T09:56:14;21.54;72.47
71175;DHT22;58876;51.994;4.472;2023-07-29T09:58:45;21.71;71.19
71175;DHT22;58876;51.994;4.472;2023-07-29T10:01:11;21.41;72.63
71175;DHT22;58876;51.994;4.472;2023-07-29T10:03:37;21.30;72.70
71175;DHT22;58876;51.994;4.472;2023-07-29T10:06:04;21.07;73.78
71175;DHT22;58876;51.994;4.472;2023-07-29T10:08:30;20.95;74.38
71175;DHT22;58876;51.994;4.472;2023-07-29T10:11:07;20.89;75.14
71175;DHT22;58876;51.994;4.472;2023-07-29T10:13:34;21.07;75.29
71175;DHT22;58876;51.994;4.472;2023-07-29T10:16:00;20.77;75.42
71175;DHT22;58876;51.994;4.472;2023-07-29T10:18:29;20.73;76.99
71175;DHT22;58876;51.994;4.472;2023-07-29T10:20:57;20.45;78.44
71175;DHT22;58876;51.994;4.472;2023-07-29T10:23:25;20.29;77.79
71175;DHT22;58876;51.994;4.472;2023-07-29T10:26:10;20.10;78.31
71175;DHT22;58876;51.994;4.472;2023-07-29T10:28:40;19.91;79.65
71175;DHT22;58876;51.994;4.472;2023-07-29T10:31:07;19.97;79.21
71175;DHT22;58876;51.994;4.472;2023-07-29T10:33:33;20.04;79.57
71175;DHT22;58876;51.994;4.472;2023-07-29T10:36:00;19.97;79.65
71175;DHT22;58876;51.994;4.472;2023-07-29T10:38:27;19.94;80.67
71175;DHT22;58876;51.994;4.472;2023-07-29T10:40:55;20.11;80.63
71175;DHT22;58876;51.994;4.472;2023-07-29T10:45:50;20.08;81.40
71175;DHT22;58876;51.994;4.472;2023-07-29T10:51:21;20.66;80.41
71175;DHT22;58876;51.994;4.472;2023-07-29T10:53:47;20.56;80.26
71175;DHT22;58876;51.994;4.472;2023-07-29T10:56:13;20.69;79.45
71175;DHT22;58876;51.994;4.472;2023-07-29T10:58:38;20.56;80.14
71175;DHT22;58876;51.994;4.472;2023-07-29T11:01:13;20.76;79.36
71175;DHT22;58876;51.994;4.472;2023-07-29T11:03:38;20.75;78.62
71175;DHT22;58876;51.994;4.472;2023-07-29T11:06:04;21.16;79.52
71175;DHT22;58876;51.994;4.472;2023-07-29T11:08:31;21.06;78.22
71175;DHT22;58876;51.994;4.472;2023-07-29T11:13:33;21.51;78.52
71175;DHT22;58876;51.994;4.472;2023-07-29T11:15:59;21.40;75.72
71175;DHT22;58876;51.994;4.472;2023-07-29T11:18:30;21.28;76.98
71175;DHT22;58876;51.994;4.472;2023-07-29T11:20:57;21.28;76.24
71175;DHT22;58876;51.994;4.472;2023-07-29T11:23:34;21.00;77.68
71175;DHT22;58876;51.994;4.472;2023-07-29T11:26:01;21.17;77.67
71175;DHT22;58876;51.994;4.472;2023-07-29T11:28:28;20.93;77.72
71175;DHT22;58876;51.994;4.472;2023-07-29T11:30:55;21.02;76.96
71175;DHT22;58876;51.994;4.472;2023-07-29T11:33:21;20.86;75.66
71175;DHT22;58876;51.994;4.472;2023-07-29T11:35:47;20.90;76.67
71175;DHT22;58876;51.994;4.472;2023-07-29T11:38:20;20.99;76.94
71175;DHT22;58876;51.994;4.472;2023-07-29T11:41:00;21.24;76.05
71175;DHT22;58876;51.994;4.472;2023-07-29T11:43:28;21.81;75.20
71175;DHT22;58876;51.994;4.472;2023-07-29T11:45:54;22.15;73.75
71175;DHT22;58876;51.994;4.472;2023-07-29T11:48:32;22.01;74.03
71175;DHT22;58876;51.994;4.472;2023-07-29T11:50:59;21.85;74.38
71175;DHT22;58876;51.994;4.472;2023-07-29T11:53:29;21.89;73.86
71175;DHT22;58876;51.994;4.472;2023-07-29T11:55:55;21.69;73.57
71175;DHT22;58876;51.994;4.472;2023-07-29T11:58:21;21.68;73.96
71175;DHT22;58876;51.994;4.472;2023-07-29T12:00:47;21.86;72.59
71175;DHT22;58876;51.994;4.472;2023-07-29T12:03:13;22.12;71.42
71175;DHT22;58876;51.994;4.472;2023-07-29T12:05:40;22.42;70.99
71175;DHT22;58876;51.994;4.472;2023-07-29T12:08:07;22.44;69.40
71175;DHT22;58876;51.994;4.472;2023-07-29T12:10:33;22.19;70.79
71175;DHT22;58876;51.994;4.472;2023-07-29T12:13:02;22.13;71.35
71175;DHT22;58876;51.994;4.472;2023-07-29T12:15:29;22.68;71.77
71175;DHT22;58876;51.994;4.472;2023-07-29T12:17:56;22.67;68.12
71175;DHT22;58876;51.994;4.472;2023-07-29T12:20:22;23.18;68.22
71175;DHT22;58876;51.994;4.472;2023-07-29T12:23:00;22.91;67.64
71175;DHT22;58876;51.994;4.472;2023-07-29T12:25:31;22.86;68.20
71175;DHT22;58876;51.994;4.472;2023-07-29T12:28:01;23.62;66.96
71175;DHT22;58876;51.994;4.472;2023-07-29T12:30:26;23.42;65.96
71175;DHT22;58876;51.994;4.472;2023-07-29T12:32:52;22.84;67.35
71175;DHT22;58876;51.994;4.472;2023-07-29T12:35:20;23.22;66.86
71175;DHT22;58876;51.994;4.472;2023-07-29T12:37:45;23.32;66.37
71175;DHT22;58876;51.994;4.472;2023-07-29T12:40:24;23.29;66.88
71175;DHT22;58876;51.994;4.472;2023-07-29T12:42:50;23.41;66.52
71175;DHT22;58876;51.994;4.472;2023-07-29T12:45:16;23.46;66.02
71175;DHT22;58876;51.994;4.472;2023-07-29T12:47:43;22.90;67.62
71175;DHT22;58876;51.994;4.472;2023-07-29T12:50:09;23.19;68.29
71175;DHT22;58876;51.994;4.472;2023-07-29T12:52:34;23.67;65.46
71175;DHT22;58876;51.994;4.472;2023-07-29T12:55:00;23.46;64.68
71175;DHT22;58876;51.994;4.472;2023-07-29T12:57:25;23.59;65.29
71175;DHT22;58876;51.994;4.472;2023-07-29T12:59:51;23.33;65.00
71175;DHT22;58876;51.994;4.472;2023-07-29T13:02:16;23.11;66.01
71175;DHT22;58876;51.994;4.472;2023-07-29T13:04:42;22.94;67.89
71175;DHT22;58876;51.994;4.472;2023-07-29T13:07:07;23.01;67.61
71175;DHT22;58876;51.994;4.472;2023-07-29T13:09:33;23.46;65.45
71175;DHT22;58876;51.994;4.472;2023-07-29T13:11:58;24.00;62.88
71175;DHT22;58876;51.994;4.472;2023-07-29T13:14:24;23.79;63.68
71175;DHT22;58876;51.994;4.472;2023-07-29T13:16:51;23.93;63.61
71175;DHT22;58876;51.994;4.472;2023-07-29T13:19:18;24.38;63.12
71175;DHT22;58876;51.994;4.472;2023-07-29T13:21:44;23.87;63.58
71175;DHT22;58876;51.994;4.472;2023-07-29T13:24:09;24.22;62.26
71175;DHT22;58876;51.994;4.472;2023-07-29T13:26:34;24.41;60.74
71175;DHT22;58876;51.994;4.472;2023-07-29T13:29:00;24.31;61.57
71175;DHT22;58876;51.994;4.472;2023-07-29T13:31:26;24.22;61.71
71175;DHT22;58876;51.994;4.472;2023-07-29T13:33:51;24.35;60.95
71175;DHT22;58876;51.994;4.472;2023-07-29T13:36:17;24.21;60.95
71175;DHT22;58876;51.994;4.472;2023-07-29T13:38:42;24.07;61.03
71175;DHT22;58876;51.994;4.472;2023-07-29T13:41:08;23.99;59.31
71175;DHT22;58876;51.994;4.472;2023-07-29T13:43:33;24.10;60.87
71175;DHT22;58876;51.994;4.472;2023-07-29T13:45:59;23.87;62.51
71175;DHT22;58876;51.994;4.472;2023-07-29T13:48:24;23.62;61.73
71175;DHT22;58876;51.994;4.472;2023-07-29T13:50:50;23.28;63.46
71175;DHT22;58876;51.994;4.472;2023-07-29T13:53:16;23.26;64.23
71175;DHT22;58876;51.994;4.472;2023-07-29T13:55:42;23.60;63.14
71175;DHT22;58876;51.994;4.472;2023-07-29T13:58:08;24.04;61.84
71175;DHT22;58876;51.994;4.472;2023-07-29T14:00:33;23.76;61.82
71175;DHT22;58876;51.994;4.472;2023-07-29T14:02:59;23.72;61.61
71175;DHT22;58876;51.994;4.472;2023-07-29T14:05:24;23.96;60.20
71175;DHT22;58876;51.994;4.472;2023-07-29T14:07:50;24.00;59.66
71175;DHT22;58876;51.994;4.472;2023-07-29T14:10:15;24.00;59.54
71175;DHT22;58876;51.994;4.472;2023-07-29T14:12:41;23.80;60.09
71175;DHT22;58876;51.994;4.472;2023-07-29T14:15:07;23.90;60.16
71175;DHT22;58876;51.994;4.472;2023-07-29T14:17:33;23.73;58.69
71175;DHT22;58876;51.994;4.472;2023-07-29T14:19:58;23.52;59.59
71175;DHT22;58876;51.994;4.472;2023-07-29T14:22:24;24.03;58.37
71175;DHT22;58876;51.994;4.472;2023-07-29T14:24:49;24.11;57.17
71175;DHT22;58876;51.994;4.472;2023-07-29T14:27:15;23.37;57.80
71175;DHT22;58876;51.994;4.472;2023-07-29T14:29:42;22.90;60.43
71175;DHT22;58876;51.994;4.472;2023-07-29T14:32:07;22.84;61.19
71175;DHT22;58876;51.994;4.472;2023-07-29T14:34:33;23.31;61.48
71175;DHT22;58876;51.994;4.472;2023-07-29T14:36:58;23.67;60.11
71175;DHT22;58876;51.994;4.472;2023-07-29T14:39:24;23.79;60.53
71175;DHT22;58876;51.994;4.472;2023-07-29T14:41:50;23.67;61.23
71175;DHT22;58876;51.994;4.472;2023-07-29T14:44:15;23.70;62.26
71175;DHT22;58876;51.994;4.472;2023-07-29T14:46:41;23.55;62.12
71175;DHT22;58876;51.994;4.472;2023-07-29T14:49:06;23.56;62.62
71175;DHT22;58876;51.994;4.472;2023-07-29T14:51:32;24.18;62.21
71175;DHT22;58876;51.994;4.472;2023-07-29T14:53:57;24.13;61.10
71175;DHT22;58876;51.994;4.472;2023-07-29T14:56:23;24.00;62.66
71175;DHT22;58876;51.994;4.472;2023-07-29T14:58:48;23.93;61.92
71175;DHT22;58876;51.994;4.472;2023-07-29T15:01:15;24.16;63.36
71175;DHT22;58876;51.994;4.472;2023-07-29T15:03:41;24.65;61.70
71175;DHT22;58876;51.994;4.472;2023-07-29T15:06:06;23.67;62.98
71175;DHT22;58876;51.994;4.472;2023-07-29T15:08:32;23.77;63.28
71175;DHT22;58876;51.994;4.472;2023-07-29T15:10:57;23.99;63.33
71175;DHT22;58876;51.994;4.472;2023-07-29T15:13:23;23.37;63.92
71175;DHT22;58876;51.994;4.472;2023-07-29T15:15:48;23.28;64.35
71175;DHT22;58876;51.994;4.472;2023-07-29T15:18:15;23.66;64.24
71175;DHT22;58876;51.994;4.472;2023-07-29T15:20:41;23.81;63.94
71175;DHT22;58876;51.994;4.472;2023-07-29T15:23:06;24.07;62.38
71175;DHT22;58876;51.994;4.472;2023-07-29T15:25:32;23.89;63.62
71175;DHT22;58876;51.994;4.472;2023-07-29T15:27:58;23.43;63.79
71175;DHT22;58876;51.994;4.472;2023-07-29T15:30:23;23.84;65.04
71175;DHT22;58876;51.994;4.472;2023-07-29T15:32:48;24.00;62.30
71175;DHT22;58876;51.994;4.472;2023-07-29T15:35:14;23.94;61.13
71175;DHT22;58876;51.994;4.472;2023-07-29T15:37:40;23.93;60.90
71175;DHT22;58876;51.994;4.472;2023-07-29T15:40:06;24.09;59.95
71175;DHT22;58876;51.994;4.472;2023-07-29T15:42:33;23.79;58.64